SHT15D EGLL-EGJJ
Flight info
| Callsign | SHT15D |
|---|---|
| Flight time | 0h 35m |
| Altitude | 22000 |
| Route | GOGSI N621 SAM N63 LELNA |
| Aircraft | A319/M-SDE3FGHIRWY/LB1 |
Departure
| Time | 2026-05-03 21:54 |
|---|---|
| Airport | London Heathrow Airport (EGLL) |
Arrival
| Time | 2026-05-03 22:29 |
|---|---|
| Airport | Jersey Airport (EGJJ) |
| Time | Latitude | Longitude | Altitude | Speed | Heading |
|---|---|---|---|---|---|
| 2026-05-03 21:37 | 51.46931 | -0.48862 | 87 ft | 0 kts | 359° |
| 2026-05-03 21:41 | 51.46922 | -0.48861 | 87 ft | 4 kts | 2° |
| 2026-05-03 21:42 | 51.46896 | -0.48868 | 89 ft | 4 kts | 23° |
| 2026-05-03 21:42 | 51.46877 | -0.48891 | 87 ft | 4 kts | 73° |
| 2026-05-03 21:42 | 51.46875 | -0.48904 | 87 ft | 0 kts | 90° |
| 2026-05-03 21:43 | 51.46875 | -0.48903 | 87 ft | 0 kts | 90° |
| 2026-05-03 21:44 | 51.46875 | -0.48879 | 89 ft | 5 kts | 91° |
| 2026-05-03 21:44 | 51.46874 | -0.48790 | 88 ft | 12 kts | 89° |
| 2026-05-03 21:44 | 51.46875 | -0.48642 | 87 ft | 14 kts | 89° |
| 2026-05-03 21:44 | 51.46876 | -0.48517 | 88 ft | 9 kts | 93° |
| 2026-05-03 21:45 | 51.46851 | -0.48468 | 87 ft | 7 kts | 186° |
| 2026-05-03 21:45 | 51.46827 | -0.48470 | 87 ft | 0 kts | 181° |
| 2026-05-03 21:47 | 51.46807 | -0.48471 | 87 ft | 7 kts | 181° |
| 2026-05-03 21:47 | 51.46728 | -0.48472 | 90 ft | 15 kts | 179° |
| 2026-05-03 21:48 | 51.46652 | -0.48352 | 87 ft | 21 kts | 90° |
| 2026-05-03 21:48 | 51.46653 | -0.48084 | 87 ft | 26 kts | 90° |
| 2026-05-03 21:48 | 51.46653 | -0.47760 | 87 ft | 27 kts | 89° |
| 2026-05-03 21:48 | 51.46655 | -0.47427 | 87 ft | 29 kts | 89° |
| 2026-05-03 21:49 | 51.46656 | -0.47122 | 87 ft | 30 kts | 90° |
| 2026-05-03 21:49 | 51.46656 | -0.46807 | 87 ft | 27 kts | 90° |
| 2026-05-03 21:49 | 51.46657 | -0.46503 | 89 ft | 27 kts | 90° |
| 2026-05-03 21:49 | 51.46658 | -0.46172 | 87 ft | 25 kts | 89° |
| 2026-05-03 21:50 | 51.46660 | -0.45887 | 88 ft | 23 kts | 89° |
| 2026-05-03 21:50 | 51.46662 | -0.45607 | 87 ft | 23 kts | 90° |
| 2026-05-03 21:50 | 51.46662 | -0.45320 | 89 ft | 29 kts | 90° |
| 2026-05-03 21:50 | 51.46663 | -0.45031 | 87 ft | 26 kts | 90° |
| 2026-05-03 21:51 | 51.46663 | -0.44763 | 87 ft | 23 kts | 90° |
| 2026-05-03 21:51 | 51.46664 | -0.44538 | 87 ft | 22 kts | 89° |
| 2026-05-03 21:51 | 51.46665 | -0.44261 | 90 ft | 25 kts | 90° |
| 2026-05-03 21:51 | 51.46667 | -0.43963 | 88 ft | 29 kts | 89° |
| 2026-05-03 21:52 | 51.46667 | -0.43756 | 87 ft | 19 kts | 90° |
| 2026-05-03 21:52 | 51.46649 | -0.43620 | 87 ft | 9 kts | 137° |
| 2026-05-03 21:52 | 51.46574 | -0.43604 | 87 ft | 14 kts | 179° |
| 2026-05-03 21:52 | 51.46495 | -0.43694 | 86 ft | 12 kts | 268° |
| 2026-05-03 21:53 | 51.46495 | -0.43774 | 86 ft | 31 kts | 269° |
| 2026-05-03 21:53 | 51.46489 | -0.44525 | 88 ft | 101 kts | 270° |
| 2026-05-03 21:53 | 51.46483 | -0.45979 | 91 ft | 157 kts | 270° |
| 2026-05-03 21:53 | 51.46475 | -0.47865 | 467 ft | 176 kts | 268° |
| 2026-05-03 21:54 | 51.46472 | -0.49878 | 1124 ft | 184 kts | 268° |
| 2026-05-03 21:54 | 51.46476 | -0.52016 | 1623 ft | 203 kts | 268° |
| 2026-05-03 21:54 | 51.46483 | -0.54432 | 2073 ft | 229 kts | 269° |
| 2026-05-03 21:54 | 51.46491 | -0.57132 | 2720 ft | 251 kts | 270° |
| 2026-05-03 21:55 | 51.46498 | -0.59982 | 3667 ft | 260 kts | 269° |
| 2026-05-03 21:55 | 51.46206 | -0.62865 | 4700 ft | 264 kts | 257° |
| 2026-05-03 21:55 | 51.45799 | -0.65723 | 5752 ft | 267 kts | 259° |
| 2026-05-03 21:55 | 51.45665 | -0.68710 | 6788 ft | 271 kts | 268° |
| 2026-05-03 21:56 | 51.45628 | -0.71753 | 7794 ft | 275 kts | 268° |
| 2026-05-03 21:56 | 51.45573 | -0.74843 | 8771 ft | 279 kts | 267° |
| 2026-05-03 21:56 | 51.45508 | -0.77979 | 9700 ft | 284 kts | 266° |
| 2026-05-03 21:56 | 51.45375 | -0.81187 | 10344 ft | 299 kts | 257° |
| 2026-05-03 21:57 | 51.44531 | -0.84337 | 10686 ft | 319 kts | 236° |
| 2026-05-03 21:57 | 51.43133 | -0.87156 | 11379 ft | 326 kts | 224° |
| 2026-05-03 21:57 | 51.41277 | -0.89244 | 12188 ft | 329 kts | 206° |
| 2026-05-03 21:57 | 51.39192 | -0.90771 | 13036 ft | 331 kts | 205° |
| 2026-05-03 21:58 | 51.37156 | -0.92521 | 13848 ft | 334 kts | 210° |
| 2026-05-03 21:58 | 51.35145 | -0.94413 | 14628 ft | 336 kts | 210° |
| 2026-05-03 21:58 | 51.33125 | -0.96321 | 15393 ft | 339 kts | 210° |
| 2026-05-03 21:58 | 51.31076 | -0.98234 | 16133 ft | 342 kts | 209° |
| 2026-05-03 21:59 | 51.29007 | -1.00137 | 16858 ft | 344 kts | 209° |
| 2026-05-03 21:59 | 51.26946 | -1.02132 | 17558 ft | 348 kts | 211° |
| 2026-05-03 21:59 | 51.24901 | -1.04225 | 18262 ft | 351 kts | 212° |
| 2026-05-03 21:59 | 51.22852 | -1.06378 | 18951 ft | 354 kts | 212° |
| 2026-05-03 22:00 | 51.20796 | -1.08553 | 19629 ft | 357 kts | 212° |
| 2026-05-03 22:00 | 51.18714 | -1.10743 | 20284 ft | 360 kts | 212° |
| 2026-05-03 22:00 | 51.16610 | -1.12936 | 20938 ft | 363 kts | 212° |
| 2026-05-03 22:00 | 51.14482 | -1.15136 | 21536 ft | 366 kts | 212° |
| 2026-05-03 22:01 | 51.12332 | -1.17343 | 21850 ft | 367 kts | 212° |
| 2026-05-03 22:01 | 51.10187 | -1.19537 | 21935 ft | 365 kts | 212° |
| 2026-05-03 22:01 | 51.08081 | -1.21688 | 21942 ft | 364 kts | 212° |
| 2026-05-03 22:01 | 51.05929 | -1.23886 | 21944 ft | 362 kts | 212° |
| 2026-05-03 22:02 | 51.03836 | -1.26025 | 21943 ft | 362 kts | 212° |
| 2026-05-03 22:02 | 51.01688 | -1.28217 | 21942 ft | 362 kts | 212° |
| 2026-05-03 22:02 | 50.99595 | -1.30347 | 21943 ft | 362 kts | 212° |
| 2026-05-03 22:02 | 50.97471 | -1.32504 | 21942 ft | 362 kts | 211° |
| 2026-05-03 22:03 | 50.95331 | -1.34621 | 21943 ft | 362 kts | 208° |
| 2026-05-03 22:03 | 50.93088 | -1.36435 | 21943 ft | 362 kts | 206° |
| 2026-05-03 22:03 | 50.90843 | -1.38235 | 21945 ft | 362 kts | 206° |
| 2026-05-03 22:03 | 50.88600 | -1.40033 | 21950 ft | 361 kts | 206° |
| 2026-05-03 22:04 | 50.86352 | -1.41833 | 21953 ft | 361 kts | 206° |
| 2026-05-03 22:04 | 50.84106 | -1.43630 | 21954 ft | 361 kts | 206° |
| 2026-05-03 22:04 | 50.81861 | -1.45415 | 21955 ft | 360 kts | 206° |
| 2026-05-03 22:04 | 50.79620 | -1.47194 | 21955 ft | 361 kts | 206° |
| 2026-05-03 22:05 | 50.77376 | -1.48974 | 21957 ft | 360 kts | 206° |
| 2026-05-03 22:05 | 50.75133 | -1.50753 | 21958 ft | 360 kts | 206° |
| 2026-05-03 22:05 | 50.72895 | -1.52526 | 21961 ft | 360 kts | 206° |
| 2026-05-03 22:05 | 50.70661 | -1.54297 | 21959 ft | 359 kts | 206° |
| 2026-05-03 22:06 | 50.68423 | -1.56069 | 21959 ft | 360 kts | 206° |
| 2026-05-03 22:06 | 50.66185 | -1.57840 | 21957 ft | 359 kts | 206° |
| 2026-05-03 22:06 | 50.63968 | -1.59591 | 21882 ft | 354 kts | 206° |
| 2026-05-03 22:06 | 50.61766 | -1.61325 | 21805 ft | 353 kts | 206° |
| 2026-05-03 22:07 | 50.59572 | -1.63054 | 21730 ft | 352 kts | 206° |
| 2026-05-03 22:07 | 50.57381 | -1.64781 | 21657 ft | 351 kts | 206° |
| 2026-05-03 22:07 | 50.55221 | -1.66479 | 21579 ft | 351 kts | 206° |
| 2026-05-03 22:07 | 50.53040 | -1.68192 | 21504 ft | 351 kts | 206° |
| 2026-05-03 22:08 | 50.50857 | -1.69905 | 21420 ft | 350 kts | 206° |
| 2026-05-03 22:08 | 50.48678 | -1.71609 | 21357 ft | 350 kts | 206° |
| 2026-05-03 22:08 | 50.46501 | -1.73314 | 21277 ft | 349 kts | 206° |
| 2026-05-03 22:08 | 50.44325 | -1.75019 | 21202 ft | 349 kts | 206° |
| 2026-05-03 22:09 | 50.42149 | -1.76719 | 21124 ft | 348 kts | 206° |
| 2026-05-03 22:09 | 50.39976 | -1.78413 | 21051 ft | 348 kts | 206° |
| 2026-05-03 22:09 | 50.37808 | -1.80101 | 20975 ft | 348 kts | 206° |
| 2026-05-03 22:10 | 50.34212 | -1.82901 | 20855 ft | 347 kts | 206° |
| 2026-05-03 22:10 | 50.31351 | -1.85129 | 20753 ft | 345 kts | 206° |
| 2026-05-03 22:10 | 50.29197 | -1.86806 | 20679 ft | 345 kts | 206° |
| 2026-05-03 22:10 | 50.27048 | -1.88480 | 20605 ft | 344 kts | 206° |
| 2026-05-03 22:11 | 50.24904 | -1.90142 | 20528 ft | 344 kts | 206° |
| 2026-05-03 22:11 | 50.23482 | -1.91242 | 20478 ft | 344 kts | 206° |
| 2026-05-03 22:11 | 50.21334 | -1.92899 | 20403 ft | 344 kts | 206° |
| 2026-05-03 22:11 | 50.19186 | -1.94554 | 20326 ft | 344 kts | 206° |
| 2026-05-03 22:12 | 50.17040 | -1.96206 | 20249 ft | 343 kts | 206° |
| 2026-05-03 22:12 | 50.14900 | -1.97854 | 20176 ft | 343 kts | 206° |
| 2026-05-03 22:12 | 50.12763 | -1.99500 | 20056 ft | 342 kts | 206° |
| 2026-05-03 22:12 | 50.10628 | -2.01144 | 19923 ft | 341 kts | 206° |
| 2026-05-03 22:13 | 50.08497 | -2.02785 | 19941 ft | 342 kts | 206° |
| 2026-05-03 22:13 | 50.06368 | -2.04422 | 19943 ft | 342 kts | 206° |
| 2026-05-03 22:13 | 50.04230 | -2.06062 | 19943 ft | 342 kts | 206° |
| 2026-05-03 22:13 | 50.02096 | -2.07697 | 19943 ft | 342 kts | 206° |
| 2026-05-03 22:14 | 49.99901 | -2.09100 | 19942 ft | 342 kts | 197° |
| 2026-05-03 22:14 | 49.97563 | -2.09771 | 19934 ft | 343 kts | 186° |
| 2026-05-03 22:14 | 49.95175 | -2.09672 | 19934 ft | 346 kts | 174° |
| 2026-05-03 22:14 | 49.92832 | -2.08987 | 19934 ft | 347 kts | 171° |
| 2026-05-03 22:15 | 49.90465 | -2.08254 | 19934 ft | 347 kts | 171° |
| 2026-05-03 22:15 | 49.88099 | -2.07521 | 19934 ft | 347 kts | 171° |
| 2026-05-03 22:15 | 49.85701 | -2.06780 | 19933 ft | 347 kts | 171° |
| 2026-05-03 22:15 | 49.83364 | -2.06060 | 19924 ft | 347 kts | 171° |
| 2026-05-03 22:16 | 49.80995 | -2.05333 | 19924 ft | 347 kts | 171° |
| 2026-05-03 22:16 | 49.78619 | -2.04609 | 19464 ft | 349 kts | 171° |
| 2026-05-03 22:16 | 49.76219 | -2.03879 | 18699 ft | 353 kts | 171° |
| 2026-05-03 22:16 | 49.73800 | -2.03138 | 17953 ft | 356 kts | 171° |
| 2026-05-03 22:17 | 49.71363 | -2.02398 | 17199 ft | 357 kts | 172° |
| 2026-05-03 22:17 | 49.68893 | -2.02162 | 16438 ft | 355 kts | 184° |
| 2026-05-03 22:17 | 49.66423 | -2.02301 | 15689 ft | 354 kts | 184° |
| 2026-05-03 22:17 | 49.63964 | -2.02433 | 14936 ft | 353 kts | 183° |
| 2026-05-03 22:18 | 49.61514 | -2.02562 | 14335 ft | 349 kts | 183° |
| 2026-05-03 22:18 | 49.59148 | -2.02683 | 14152 ft | 332 kts | 183° |
| 2026-05-03 22:18 | 49.56875 | -2.02799 | 14125 ft | 323 kts | 183° |
| 2026-05-03 22:18 | 49.54636 | -2.02916 | 14083 ft | 322 kts | 183° |
| 2026-05-03 22:19 | 49.52383 | -2.03035 | 13374 ft | 326 kts | 183° |
| 2026-05-03 22:19 | 49.50108 | -2.03153 | 12644 ft | 328 kts | 183° |
| 2026-05-03 22:19 | 49.47824 | -2.03272 | 11912 ft | 327 kts | 183° |
| 2026-05-03 22:19 | 49.45611 | -2.03385 | 11188 ft | 318 kts | 183° |
| 2026-05-03 22:20 | 49.43431 | -2.03498 | 10464 ft | 310 kts | 183° |
| 2026-05-03 22:20 | 49.41299 | -2.03614 | 9741 ft | 304 kts | 183° |
| 2026-05-03 22:20 | 49.39196 | -2.03729 | 9015 ft | 300 kts | 183° |
| 2026-05-03 22:20 | 49.37123 | -2.03839 | 8282 ft | 297 kts | 183° |
| 2026-05-03 22:21 | 49.35073 | -2.03946 | 7555 ft | 293 kts | 183° |
| 2026-05-03 22:21 | 49.33044 | -2.04050 | 6826 ft | 291 kts | 183° |
| 2026-05-03 22:21 | 49.31028 | -2.04152 | 6088 ft | 289 kts | 183° |
| 2026-05-03 22:21 | 49.29028 | -2.04251 | 5368 ft | 287 kts | 184° |
| 2026-05-03 22:22 | 49.27042 | -2.04352 | 4637 ft | 284 kts | 184° |
| 2026-05-03 22:22 | 49.25068 | -2.04457 | 3905 ft | 283 kts | 184° |
| 2026-05-03 22:22 | 49.23128 | -2.04141 | 3258 ft | 280 kts | 163° |
| 2026-05-03 22:22 | 49.21468 | -2.02725 | 2934 ft | 269 kts | 140° |
| 2026-05-03 22:23 | 49.20292 | -2.00584 | 2637 ft | 258 kts | 126° |
| 2026-05-03 22:23 | 49.19285 | -1.98375 | 2335 ft | 247 kts | 126° |
| 2026-05-03 22:23 | 49.18428 | -1.96187 | 2053 ft | 238 kts | 107° |
| 2026-05-03 22:23 | 49.18474 | -1.93837 | 1996 ft | 213 kts | 65° |
| 2026-05-03 22:24 | 49.19371 | -1.92198 | 2005 ft | 199 kts | 28° |
| 2026-05-03 22:24 | 49.20668 | -1.91698 | 2001 ft | 192 kts | 353° |
| 2026-05-03 22:24 | 49.21887 | -1.92376 | 2006 ft | 187 kts | 320° |
| 2026-05-03 22:24 | 49.22647 | -1.93946 | 2004 ft | 185 kts | 288° |
| 2026-05-03 22:25 | 49.22706 | -1.95884 | 2034 ft | 184 kts | 261° |
| 2026-05-03 22:25 | 49.22555 | -1.97822 | 2008 ft | 182 kts | 264° |
| 2026-05-03 22:25 | 49.22416 | -1.99737 | 2003 ft | 181 kts | 263° |
| 2026-05-03 22:25 | 49.22266 | -2.01652 | 2005 ft | 181 kts | 263° |
| 2026-05-03 22:26 | 49.22112 | -2.03560 | 2004 ft | 180 kts | 263° |
| 2026-05-03 22:26 | 49.21957 | -2.05468 | 2004 ft | 180 kts | 263° |
| 2026-05-03 22:26 | 49.21805 | -2.07326 | 1983 ft | 165 kts | 263° |
| 2026-05-03 22:26 | 49.21665 | -2.09017 | 1667 ft | 158 kts | 264° |
| 2026-05-03 22:27 | 49.21542 | -2.10594 | 1418 ft | 142 kts | 262° |
| 2026-05-03 22:27 | 49.21411 | -2.12015 | 1168 ft | 132 kts | 261° |
| 2026-05-03 22:27 | 49.21296 | -2.13381 | 959 ft | 128 kts | 264° |
| 2026-05-03 22:27 | 49.21215 | -2.14723 | 783 ft | 126 kts | 263° |
| 2026-05-03 22:28 | 49.21095 | -2.16048 | 636 ft | 126 kts | 262° |
| 2026-05-03 22:28 | 49.20984 | -2.17374 | 434 ft | 125 kts | 262° |
| 2026-05-03 22:28 | 49.20871 | -2.18687 | 293 ft | 122 kts | 262° |
| 2026-05-03 22:28 | 49.20782 | -2.19736 | 285 ft | 63 kts | 263° |
| 2026-05-03 22:29 | 49.20725 | -2.20085 | 285 ft | 21 kts | 223° |
| 2026-05-03 22:29 | 49.20620 | -2.20095 | 284 ft | 14 kts | 172° |
| 2026-05-03 22:29 | 49.20556 | -2.20084 | 284 ft | 10 kts | 171° |
| 2026-05-03 22:29 | 49.20518 | -2.19983 | 284 ft | 13 kts | 96° |
| 2026-05-03 22:30 | 49.20590 | -2.19922 | 284 ft | 13 kts | 31° |
| 2026-05-03 22:30 | 49.20612 | -2.19777 | 284 ft | 13 kts | 84° |
| 2026-05-03 22:30 | 49.20610 | -2.19669 | 284 ft | 9 kts | 140° |
| 2026-05-03 22:30 | 49.20569 | -2.19641 | 284 ft | 3 kts | 163° |
| 2026-05-03 22:31 | 49.20560 | -2.19636 | 284 ft | 0 kts | 160° |